createdAt,value
2019-01-27T00:01:24.295Z,11.33
2019-01-27T00:03:54.069Z,13.13
2019-01-27T00:06:23.740Z,12.53
2019-01-27T00:08:55.366Z,13.27
2019-01-27T00:11:26.309Z,11.60
2019-01-27T00:13:56.440Z,14.43
2019-01-27T00:16:26.271Z,13.10
2019-01-27T00:18:57.005Z,15.63
2019-01-27T00:21:27.206Z,12.33
2019-01-27T00:23:56.984Z,12.40
2019-01-27T00:26:26.863Z,14.80
2019-01-27T00:28:56.546Z,12.17
2019-01-27T00:31:26.341Z,11.37
2019-01-27T00:33:56.014Z,15.53
2019-01-27T00:36:25.698Z,11.70
2019-01-27T00:38:55.415Z,12.23
2019-01-27T00:41:25.103Z,14.70
2019-01-27T00:43:54.940Z,18.67
2019-01-27T00:46:24.658Z,12.13
2019-01-27T00:48:54.250Z,13.60
2019-01-27T00:51:23.975Z,13.93
2019-01-27T00:53:53.852Z,11.73
2019-01-27T00:56:23.406Z,13.83
2019-01-27T00:58:53.115Z,13.87
2019-01-27T01:01:24.030Z,12.13
2019-01-27T01:03:53.823Z,16.27
2019-01-27T01:06:23.635Z,14.70
2019-01-27T01:08:53.382Z,13.03
2019-01-27T01:11:23.131Z,18.30
2019-01-27T01:13:52.891Z,15.00
2019-01-27T01:16:22.649Z,13.67
2019-01-27T01:18:52.298Z,12.40
2019-01-27T01:21:22.021Z,16.73
2019-01-27T01:23:51.956Z,13.93
2019-01-27T01:26:21.747Z,16.50
2019-01-27T01:28:51.344Z,16.00
2019-01-27T01:31:21.091Z,17.30
2019-01-27T01:33:50.772Z,14.93
2019-01-27T01:36:20.485Z,15.03
2019-01-27T01:38:50.199Z,16.40
2019-01-27T01:41:19.879Z,18.77
2019-01-27T01:43:49.607Z,15.77
2019-01-27T01:46:19.364Z,14.50
2019-01-27T01:48:49.018Z,15.13
2019-01-27T01:51:18.623Z,14.20
2019-01-27T01:53:48.247Z,15.17
2019-01-27T01:56:17.939Z,14.87
2019-01-27T01:58:49.572Z,18.23
2019-01-27T02:01:22.873Z,15.10
2019-01-27T02:03:52.495Z,14.23
2019-01-27T02:06:22.320Z,17.67
2019-01-27T02:08:52.000Z,16.63
2019-01-27T02:11:21.642Z,14.70
2019-01-27T02:13:51.739Z,16.10
2019-01-27T02:16:21.487Z,18.60
2019-01-27T02:18:51.207Z,13.90
2019-01-27T02:21:20.807Z,18.83
2019-01-27T02:23:50.535Z,17.53
2019-01-27T02:26:20.199Z,15.33
2019-01-27T02:28:49.908Z,13.67
2019-01-27T02:31:19.686Z,16.90
2019-01-27T02:33:49.470Z,19.80
2019-01-27T02:36:19.069Z,14.47
2019-01-27T02:38:48.684Z,14.67
2019-01-27T02:41:18.352Z,15.20
2019-01-27T02:43:48.071Z,16.27
2019-01-27T02:46:17.808Z,16.83
2019-01-27T02:48:47.482Z,14.00
2019-01-27T02:51:17.319Z,13.53
2019-01-27T02:53:47.033Z,17.37
2019-01-27T02:56:16.716Z,15.90
2019-01-27T02:58:46.423Z,14.70
2019-01-27T03:01:16.167Z,16.40
2019-01-27T03:03:45.875Z,17.70
2019-01-27T03:06:33.093Z,14.00
2019-01-27T03:09:14.076Z,15.40
2019-01-27T03:11:52.963Z,16.83
2019-01-27T03:14:23.273Z,15.23
2019-01-27T03:16:55.025Z,18.13
2019-01-27T03:19:25.028Z,14.83
2019-01-27T03:21:55.050Z,18.27
2019-01-27T03:24:24.693Z,15.90
2019-01-27T03:26:54.440Z,17.13
2019-01-27T03:29:24.127Z,18.37
2019-01-27T03:31:53.819Z,17.50
2019-01-27T03:34:23.553Z,15.77
2019-01-27T03:36:53.245Z,15.57
2019-01-27T03:39:22.951Z,17.63
2019-01-27T03:41:54.635Z,21.13
2019-01-27T03:44:25.528Z,18.20
2019-01-27T03:46:55.143Z,18.67
2019-01-27T03:49:24.898Z,21.13
2019-01-27T03:51:54.615Z,19.30
2019-01-27T03:54:24.283Z,19.93
2019-01-27T03:56:54.029Z,18.33
2019-01-27T03:59:23.722Z,19.63
2019-01-27T04:01:53.409Z,15.07
2019-01-27T04:04:23.046Z,18.37
2019-01-27T04:06:52.673Z,17.73
2019-01-27T04:09:22.349Z,19.57
2019-01-27T04:11:51.989Z,20.63
2019-01-27T04:14:21.700Z,16.83
2019-01-27T04:16:51.376Z,18.37
2019-01-27T04:19:21.151Z,16.93
2019-01-27T04:21:50.777Z,15.00
2019-01-27T04:24:20.705Z,14.50
2019-01-27T04:26:50.820Z,17.77
2019-01-27T04:29:20.441Z,17.93
2019-01-27T04:31:50.156Z,17.53
2019-01-27T04:34:19.884Z,14.23
2019-01-27T04:36:49.554Z,17.67
2019-01-27T04:39:19.247Z,15.83
2019-01-27T04:41:48.890Z,14.00
2019-01-27T04:44:18.577Z,12.23
2019-01-27T04:46:48.288Z,17.27
2019-01-27T04:49:17.931Z,17.17
2019-01-27T04:51:49.533Z,18.47
2019-01-27T04:54:19.266Z,13.60
2019-01-27T04:56:49.037Z,15.77
2019-01-27T04:59:18.690Z,14.47
2019-01-27T05:01:50.904Z,13.03
2019-01-27T05:04:33.357Z,14.70
2019-01-27T05:07:02.966Z,12.20
2019-01-27T05:09:32.669Z,14.27
2019-01-27T05:12:02.409Z,15.60
2019-01-27T05:14:32.092Z,15.57
2019-01-27T05:17:01.699Z,13.97
2019-01-27T05:19:31.404Z,13.33
2019-01-27T05:22:01.175Z,16.77
2019-01-27T05:24:30.862Z,15.43
2019-01-27T05:27:01.690Z,15.27
2019-01-27T05:29:32.773Z,20.53
2019-01-27T05:32:02.407Z,14.83
2019-01-27T05:34:33.994Z,13.30
2019-01-27T05:37:05.622Z,13.87
2019-01-27T05:39:35.247Z,15.07
2019-01-27T05:42:05.101Z,13.60
2019-01-27T05:44:34.648Z,15.90
2019-01-27T05:47:04.419Z,16.87
2019-01-27T05:49:34.131Z,13.90
2019-01-27T05:52:03.787Z,13.37
2019-01-27T05:54:37.028Z,13.63
2019-01-27T05:57:11.479Z,13.57
2019-01-27T05:59:41.171Z,15.40
2019-01-27T06:02:11.923Z,15.03
2019-01-27T06:04:41.712Z,16.30
2019-01-27T06:07:15.868Z,14.23
2019-01-27T06:09:48.593Z,16.63
2019-01-27T06:12:22.723Z,13.53
2019-01-27T06:14:54.275Z,15.57
2019-01-27T06:17:24.217Z,15.37
2019-01-27T06:19:57.210Z,15.03
2019-01-27T06:22:27.312Z,13.47
2019-01-27T06:24:59.596Z,13.63
2019-01-27T06:27:30.548Z,15.20
2019-01-27T06:30:04.435Z,15.07
2019-01-27T06:32:45.499Z,13.70
2019-01-27T06:35:16.456Z,15.93
2019-01-27T06:37:48.762Z,12.77
2019-01-27T06:40:18.644Z,11.10
2019-01-27T06:42:48.562Z,13.10
2019-01-27T06:45:38.708Z,14.70
2019-01-27T06:48:09.384Z,16.53
2019-01-27T06:50:39.106Z,16.43
2019-01-27T06:53:08.869Z,13.67
2019-01-27T06:55:38.658Z,14.80
2019-01-27T06:58:08.235Z,14.33
2019-01-27T07:00:59.896Z,15.00
2019-01-27T07:03:51.492Z,13.57
2019-01-27T07:06:29.406Z,17.10
2019-01-27T07:09:12.294Z,12.17
2019-01-27T07:12:07.176Z,12.30
2019-01-27T07:14:45.204Z,12.27
2019-01-27T07:17:39.896Z,12.83
2019-01-27T07:20:33.247Z,18.90
2019-01-27T07:23:20.824Z,15.83
2019-01-27T07:26:08.035Z,19.63
2019-01-27T07:28:48.589Z,14.30
2019-01-27T07:31:34.026Z,16.30
2019-01-27T07:34:35.104Z,18.07
2019-01-27T07:37:35.470Z,15.30
2019-01-27T07:40:12.939Z,17.33
2019-01-27T07:43:02.996Z,15.13
2019-01-27T07:46:10.147Z,16.40
2019-01-27T07:48:50.343Z,15.37
2019-01-27T07:51:42.008Z,18.67
2019-01-27T07:54:20.276Z,20.90
2019-01-27T07:57:18.267Z,17.80
2019-01-27T08:00:15.474Z,18.67
2019-01-27T08:03:03.386Z,21.30
2019-01-27T08:05:46.690Z,16.43
2019-01-27T08:08:28.103Z,19.10
2019-01-27T08:11:17.620Z,16.77
2019-01-27T08:14:08.377Z,18.97
2019-01-27T08:17:01.871Z,15.47
2019-01-27T08:20:01.757Z,20.90
2019-01-27T08:22:52.466Z,20.13
2019-01-27T08:25:47.196Z,15.87
2019-01-27T08:28:28.296Z,19.87
2019-01-27T08:31:29.479Z,16.40
2019-01-27T08:34:22.447Z,17.73
2019-01-27T08:36:58.595Z,15.87
2019-01-27T08:39:53.271Z,18.93
2019-01-27T08:42:44.835Z,13.80
2019-01-27T08:45:39.471Z,15.87
2019-01-27T08:48:09.130Z,16.80
2019-01-27T08:50:38.820Z,17.60
2019-01-27T08:53:08.608Z,19.20
2019-01-27T08:55:38.294Z,20.97
2019-01-27T08:58:07.819Z,15.43
2019-01-27T09:00:39.058Z,16.77
2019-01-27T09:03:24.964Z,15.63
2019-01-27T09:06:13.487Z,15.63
2019-01-27T09:09:03.079Z,16.47
2019-01-27T09:11:47.115Z,18.03
2019-01-27T09:14:45.848Z,16.60
2019-01-27T09:17:32.896Z,20.57
2019-01-27T09:20:27.542Z,17.13
2019-01-27T09:23:22.399Z,19.67
2019-01-27T09:26:04.554Z,15.40
2019-01-27T09:28:43.451Z,17.20
2019-01-27T09:31:24.545Z,23.17
2019-01-27T09:34:13.247Z,16.23
2019-01-27T09:37:09.520Z,17.20
2019-01-27T09:40:13.406Z,23.13
2019-01-27T09:43:01.177Z,24.00
2019-01-27T09:46:05.203Z,23.13
2019-01-27T09:48:55.180Z,22.37
2019-01-27T09:51:35.823Z,19.83
2019-01-27T09:54:14.676Z,21.13
2019-01-27T09:56:56.645Z,20.20
2019-01-27T09:59:54.338Z,20.47
2019-01-27T10:02:34.778Z,18.43
2019-01-27T10:05:12.479Z,18.97
2019-01-27T10:08:01.112Z,18.73
2019-01-27T10:10:52.729Z,20.27
2019-01-27T10:13:28.703Z,25.93
2019-01-27T10:16:06.435Z,28.40
2019-01-27T10:18:57.824Z,33.27
2019-01-27T10:21:52.479Z,42.23
2019-01-27T10:24:41.039Z,32.40
2019-01-27T10:27:35.460Z,39.00
2019-01-27T10:30:19.306Z,52.03
2019-01-27T10:33:22.944Z,48.17
2019-01-27T10:36:10.475Z,44.83
2019-01-27T10:38:55.834Z,43.33
2019-01-27T10:41:50.131Z,40.50
2019-01-27T10:44:50.971Z,37.53
2019-01-27T10:47:34.923Z,37.80
2019-01-27T10:50:25.539Z,40.80
2019-01-27T10:53:08.184Z,39.83
2019-01-27T10:56:07.947Z,41.10
2019-01-27T10:58:44.502Z,37.60
2019-01-27T11:01:48.408Z,37.73
2019-01-27T11:04:42.800Z,37.70
2019-01-27T11:07:23.683Z,36.33
2019-01-27T11:10:05.249Z,30.10
2019-01-27T11:12:51.318Z,23.80
2019-01-27T11:15:58.383Z,20.70
2019-01-27T11:18:49.471Z,19.03
2019-01-27T11:21:43.783Z,18.30
2019-01-27T11:24:32.372Z,39.60
2019-01-27T11:27:12.223Z,25.83
2019-01-27T11:29:59.476Z,24.47
2019-01-27T11:33:06.012Z,19.03
2019-01-27T11:35:50.135Z,23.50
2019-01-27T11:38:37.064Z,20.87
2019-01-27T11:41:31.535Z,24.57
2019-01-27T11:44:22.902Z,26.57
2019-01-27T11:47:11.429Z,30.50
2019-01-27T11:49:55.531Z,28.17
2019-01-27T11:52:32.078Z,23.90
2019-01-27T11:55:01.788Z,23.67
2019-01-27T11:57:34.430Z,16.97
2019-01-27T12:00:05.377Z,17.57
2019-01-27T12:02:36.520Z,15.63
2019-01-27T12:05:10.102Z,16.67
2019-01-27T12:07:39.643Z,18.83
2019-01-27T12:10:12.985Z,16.27
2019-01-27T12:12:42.693Z,15.53
2019-01-27T12:15:15.381Z,14.30
2019-01-27T12:17:44.936Z,14.07
2019-01-27T12:20:14.987Z,11.30
2019-01-27T12:22:44.983Z,10.87
2019-01-27T12:25:14.723Z,10.93
2019-01-27T12:27:44.451Z,10.07
2019-01-27T12:30:18.687Z,10.77
2019-01-27T12:32:49.856Z,10.23
2019-01-27T12:35:19.620Z,12.07
2019-01-27T12:37:50.384Z,9.50
2019-01-27T12:40:22.020Z,10.47
2019-01-27T12:42:51.751Z,9.07
2019-01-27T12:45:21.594Z,8.77
2019-01-27T12:47:51.179Z,12.00
2019-01-27T12:50:20.957Z,10.57
2019-01-27T12:52:51.726Z,12.07
2019-01-27T12:55:21.463Z,14.67
2019-01-27T12:57:51.786Z,10.80
2019-01-27T13:00:46.179Z,27.17
2019-01-27T13:03:15.763Z,20.00
2019-01-27T13:05:45.519Z,17.13
2019-01-27T13:08:16.521Z,15.67
2019-01-27T13:10:46.510Z,12.30
2019-01-27T13:13:17.264Z,11.77
2019-01-27T13:15:47.067Z,10.23
2019-01-27T13:18:17.994Z,8.00
2019-01-27T13:20:47.807Z,8.87
2019-01-27T13:23:18.773Z,6.00
2019-01-27T13:25:49.987Z,8.00
2019-01-27T13:28:19.611Z,10.70
2019-01-27T13:30:49.270Z,7.83
2019-01-27T13:33:18.846Z,7.13
2019-01-27T13:35:48.603Z,7.00
2019-01-27T13:38:21.227Z,6.73
2019-01-27T13:40:50.864Z,5.87
2019-01-27T13:43:20.562Z,7.23
2019-01-27T13:45:50.288Z,6.13
2019-01-27T13:48:20.281Z,5.07
2019-01-27T13:50:50.266Z,5.20
2019-01-27T13:53:21.242Z,5.70
2019-01-27T13:55:54.186Z,7.20
2019-01-27T13:58:23.937Z,5.40
2019-01-27T14:00:53.763Z,5.90
2019-01-27T14:03:25.688Z,5.93
2019-01-27T14:05:55.596Z,8.57
2019-01-27T14:08:25.247Z,4.60
2019-01-27T14:10:58.325Z,9.30
2019-01-27T14:13:32.049Z,8.43
2019-01-27T14:16:01.984Z,5.53
2019-01-27T14:18:33.627Z,5.63
2019-01-27T14:21:03.210Z,5.50
2019-01-27T14:23:32.904Z,5.00
2019-01-27T14:26:02.559Z,8.60
2019-01-27T14:28:32.251Z,8.70
2019-01-27T14:31:01.929Z,7.77
2019-01-27T14:33:32.559Z,8.87
2019-01-27T14:36:03.723Z,44.43
2019-01-27T14:38:33.315Z,20.37
2019-01-27T14:41:03.091Z,24.13
2019-01-27T14:43:32.767Z,22.30
2019-01-27T14:46:02.440Z,16.00
2019-01-27T14:48:32.140Z,17.57
2019-01-27T14:51:01.793Z,13.60
2019-01-27T14:53:31.491Z,39.17
2019-01-27T14:56:01.221Z,49.47
2019-01-27T14:58:31.019Z,42.13
2019-01-27T15:01:00.931Z,38.03
2019-01-27T15:03:30.555Z,27.47
2019-01-27T15:06:02.067Z,25.30
2019-01-27T15:08:34.586Z,25.07
2019-01-27T15:11:05.011Z,20.77
2019-01-27T15:13:34.748Z,16.67
2019-01-27T15:16:04.484Z,19.43
2019-01-27T15:18:34.107Z,16.30
2019-01-27T15:21:10.588Z,16.37
2019-01-27T15:23:40.311Z,14.97
2019-01-27T15:26:09.991Z,14.07
2019-01-27T15:28:39.795Z,13.30
2019-01-27T15:31:09.540Z,9.90
2019-01-27T15:33:39.211Z,9.23
2019-01-27T15:36:08.969Z,9.33
2019-01-27T15:38:38.639Z,6.70
2019-01-27T15:41:08.355Z,8.20
2019-01-27T15:43:38.043Z,7.10
2019-01-27T15:46:07.793Z,8.77
2019-01-27T15:48:37.456Z,9.33
2019-01-27T15:51:07.180Z,6.50
2019-01-27T15:53:36.691Z,8.27
2019-01-27T15:56:06.783Z,7.80
2019-01-27T15:58:36.441Z,12.60
2019-01-27T16:01:07.252Z,7.67
2019-01-27T16:03:36.864Z,7.30
2019-01-27T16:06:06.836Z,9.40
2019-01-27T16:08:36.485Z,8.00
2019-01-27T16:11:06.700Z,9.00
2019-01-27T16:13:36.535Z,10.00
2019-01-27T16:16:06.793Z,8.37
2019-01-27T16:18:38.470Z,7.93
2019-01-27T16:21:08.535Z,8.67
2019-01-27T16:23:47.317Z,15.43
2019-01-27T16:26:16.987Z,9.17
2019-01-27T16:28:46.676Z,6.57
2019-01-27T16:31:41.885Z,7.37
2019-01-27T16:34:33.623Z,10.00
2019-01-27T16:37:03.239Z,7.63
2019-01-27T16:39:32.976Z,8.03
2019-01-27T16:42:04.377Z,6.73
2019-01-27T16:44:34.039Z,9.80
2019-01-27T16:47:03.681Z,7.37
2019-01-27T16:49:33.691Z,9.47
2019-01-27T16:52:06.074Z,5.37
2019-01-27T16:54:35.683Z,7.40
2019-01-27T16:57:05.860Z,8.43
2019-01-27T16:59:37.773Z,7.33
2019-01-27T17:02:09.297Z,8.23
2019-01-27T17:04:39.379Z,6.23
2019-01-27T17:07:10.175Z,8.23
2019-01-27T17:09:40.059Z,5.57
2019-01-27T17:12:09.690Z,7.07
2019-01-27T17:14:39.522Z,7.40
2019-01-27T17:17:11.167Z,6.17
2019-01-27T17:19:44.473Z,8.73
2019-01-27T17:22:16.513Z,7.30
2019-01-27T17:24:49.215Z,6.97
2019-01-27T17:27:21.652Z,8.67
2019-01-27T17:29:53.441Z,8.17
2019-01-27T17:32:23.079Z,12.47
2019-01-27T17:34:52.638Z,7.77
2019-01-27T17:37:22.443Z,8.97
2019-01-27T17:39:52.083Z,11.30
2019-01-27T17:42:21.777Z,7.40
2019-01-27T17:44:51.519Z,11.93
2019-01-27T17:47:21.267Z,8.43
2019-01-27T17:49:51.048Z,6.97
2019-01-27T17:52:20.827Z,9.27
2019-01-27T17:54:50.523Z,15.13
2019-01-27T17:57:27.016Z,15.93
2019-01-27T18:00:06.112Z,22.17
2019-01-27T18:02:44.256Z,13.87
2019-01-27T18:05:27.394Z,12.00
2019-01-27T18:08:13.260Z,12.47
2019-01-27T18:10:48.373Z,12.23
2019-01-27T18:13:52.153Z,13.13
2019-01-27T18:16:24.289Z,8.83
2019-01-27T18:18:53.974Z,10.80
2019-01-27T18:21:23.626Z,9.57
2019-01-27T18:23:53.335Z,8.23
2019-01-27T18:26:22.970Z,9.27
2019-01-27T18:28:52.675Z,9.37
2019-01-27T18:31:22.345Z,8.87
2019-01-27T18:33:52.165Z,10.07
2019-01-27T18:36:21.963Z,9.13
2019-01-27T18:38:51.610Z,8.13
2019-01-27T18:41:21.276Z,9.47
2019-01-27T18:43:51.016Z,9.53
2019-01-27T18:46:20.702Z,8.90
2019-01-27T18:48:50.463Z,8.67
2019-01-27T18:51:20.156Z,10.20
2019-01-27T18:54:14.435Z,10.60
2019-01-27T18:56:52.779Z,6.67
2019-01-27T18:59:44.339Z,8.30
2019-01-27T19:02:22.951Z,8.17
2019-01-27T19:05:00.559Z,7.90
2019-01-27T19:07:46.228Z,13.93
2019-01-27T19:10:38.132Z,20.70
2019-01-27T19:13:26.955Z,10.83
2019-01-27T19:16:33.931Z,8.73
2019-01-27T19:19:31.448Z,9.10
2019-01-27T19:22:22.647Z,10.03
2019-01-27T19:25:26.507Z,6.73
2019-01-27T19:28:02.308Z,8.37
2019-01-27T19:30:54.789Z,7.77
2019-01-27T19:33:39.246Z,9.07
2019-01-27T19:36:15.607Z,8.10
2019-01-27T19:39:07.247Z,6.33
2019-01-27T19:42:08.195Z,10.27
2019-01-27T19:45:05.863Z,7.97
2019-01-27T19:47:54.479Z,8.40
2019-01-27T19:50:35.023Z,6.07
2019-01-27T19:53:22.810Z,9.23
2019-01-27T19:56:08.439Z,6.33
2019-01-27T19:58:57.188Z,6.23
2019-01-27T20:01:42.675Z,8.57
2019-01-27T20:04:20.313Z,7.20
2019-01-27T20:06:58.186Z,8.07
2019-01-27T20:09:37.449Z,8.10
2019-01-27T20:12:26.064Z,6.87
2019-01-27T20:15:23.580Z,6.97
2019-01-27T20:18:06.991Z,6.73
2019-01-27T20:20:54.546Z,8.67
2019-01-27T20:23:30.237Z,9.13
2019-01-27T20:26:23.324Z,8.33
2019-01-27T20:29:23.956Z,8.87
2019-01-27T20:32:10.472Z,7.33
2019-01-27T20:35:08.143Z,11.20
2019-01-27T20:37:48.387Z,10.70
2019-01-27T20:40:35.647Z,7.90
2019-01-27T20:43:24.548Z,10.03
2019-01-27T20:46:13.445Z,8.47
2019-01-27T20:49:07.236Z,8.53
2019-01-27T20:52:02.780Z,8.00
2019-01-27T20:55:10.324Z,8.53
2019-01-27T20:58:00.444Z,7.67
2019-01-27T21:00:42.154Z,6.20
2019-01-27T21:03:29.579Z,9.77
2019-01-27T21:06:21.764Z,10.47
2019-01-27T21:09:16.455Z,11.60
2019-01-27T21:12:08.258Z,10.67
2019-01-27T21:14:55.770Z,10.17
2019-01-27T21:17:53.566Z,12.23
2019-01-27T21:20:24.994Z,10.87
2019-01-27T21:23:00.133Z,14.13
2019-01-27T21:25:31.068Z,13.20
2019-01-27T21:28:06.131Z,15.97
2019-01-27T21:30:37.669Z,15.00
2019-01-27T21:33:09.023Z,13.00
2019-01-27T21:35:38.775Z,22.13
2019-01-27T21:38:08.340Z,27.63
2019-01-27T21:40:38.002Z,40.97
2019-01-27T21:43:07.759Z,36.83
2019-01-27T21:45:37.475Z,40.83
2019-01-27T21:48:07.082Z,36.87
2019-01-27T21:50:36.828Z,42.40
2019-01-27T21:53:06.551Z,38.57
2019-01-27T21:55:36.215Z,42.97
2019-01-27T21:58:06.275Z,36.07
2019-01-27T22:00:35.852Z,56.53
2019-01-27T22:03:05.752Z,49.90
2019-01-27T22:05:35.371Z,49.87
2019-01-27T22:08:05.367Z,49.80
2019-01-27T22:10:34.985Z,43.87
2019-01-27T22:13:05.035Z,45.93
2019-01-27T22:15:34.717Z,37.20
2019-01-27T22:18:04.431Z,30.37
2019-01-27T22:20:34.156Z,26.53
2019-01-27T22:23:03.844Z,21.60
2019-01-27T22:25:33.435Z,27.97
2019-01-27T22:28:03.208Z,25.77
2019-01-27T22:30:33.881Z,18.83
2019-01-27T22:33:03.603Z,20.10
2019-01-27T22:35:33.331Z,16.97
2019-01-27T22:38:03.016Z,20.70
2019-01-27T22:40:32.729Z,19.53
2019-01-27T22:43:02.461Z,21.30
2019-01-27T22:45:32.166Z,28.90
2019-01-27T22:48:01.868Z,29.33
2019-01-27T22:50:31.630Z,32.53
2019-01-27T22:53:01.311Z,39.07
2019-01-27T22:55:31.047Z,39.83
2019-01-27T22:58:00.723Z,48.10
2019-01-27T23:00:52.652Z,39.87
2019-01-27T23:03:22.398Z,39.10
2019-01-27T23:05:52.054Z,32.67
2019-01-27T23:08:21.668Z,38.37
2019-01-27T23:10:51.389Z,35.50
2019-01-27T23:13:21.006Z,33.07
2019-01-27T23:15:50.685Z,41.03
2019-01-27T23:18:20.431Z,40.67
2019-01-27T23:20:50.128Z,38.60
2019-01-27T23:23:20.377Z,42.43
2019-01-27T23:25:50.431Z,37.13
2019-01-27T23:28:20.258Z,42.33
2019-01-27T23:30:49.985Z,43.60
2019-01-27T23:33:19.722Z,39.10
2019-01-27T23:35:49.415Z,47.10
2019-01-27T23:38:19.015Z,44.33
2019-01-27T23:40:48.780Z,48.67
2019-01-27T23:43:18.439Z,44.27
2019-01-27T23:45:48.186Z,42.00
2019-01-27T23:48:17.920Z,44.07
2019-01-27T23:50:47.546Z,42.47
2019-01-27T23:53:17.263Z,45.43
2019-01-27T23:55:46.895Z,44.00
2019-01-27T23:58:16.519Z,45.67
